Pagrindinis puslapis
METAR-TAF:

METAR-TAF

Oro uostai :

Tiandzinas, Kinija

platuma: 39-11N, ilguma: 117-21E, Aukštis: 3 m

Dabartinis oras

Ataskaita buvo paskelbta 38 minutes, ne 13:30 UTC
Vėjas 8 kt iš Pietų
Temperatūra -3°C
Drėgmė 93%
Slėgis 1031 hPa
Matomumas: 0250 m
įšaldymas rūko

METAR: ZBTJ 071330Z 19004MPS 0250 R16R/0400V0800D R16L/0200N FZFG NSC M03/M04 Q1031 NOSIG

Laikas: 22:08 (14:08 UTC)

Prognozė

Ataskaita buvo paskelbta 5 valandos ir 8 minutes, ne 09:00 UTC
Prognozė galioja nuo 07 metu 12 UTC su 08 metu 12 UTC
Vėjas 6 kt iš Pietų
Matomumas: 3000 m
migla
Tapsmas
nuo 07 metu 14 UTC su 07 metu 15 UTC
Matomumas: 2000 m
rūkana
Tapsmas
nuo 07 metu 19 UTC su 07 metu 20 UTC
Matomumas: 1400 m
rūkana
Tapsmas
nuo 08 metu 01 UTC su 08 metu 02 UTC
Matomumas: 2400 m
migla

TAF: ZBTJ 070900Z 0712/0812 19003MPS 3000 HZ NSC TX07/0807Z TNM04/21Z BECMG 0714/0715 2000 BR BECMG 0719/0720 1400 BR BECMG 0801/0802 2400 HZ

Orai ataskaitas ir orų prognozės (METAR, TAF).

turimą stotys yra geltonos ir raudonos taškus žemėlapyje.

Perkelti pele per norėdami pamatyti stoties vardą.

Tada spustelėkite, norėdami matyti oro stebėjimo ir prognozės.

Norėdami pakeisti žemėlapį: spustelėkite ant žalios mygtukų su juodo kryžiaus žemyn,; žalią mygtuką su brūkšneliu, jei norite nutolinti; arba žalių rodyklių gretimoms žemėlapius.


METAR-TAF: